Time;durP1;ratioP1;P1;durP2;ratioP2;P2;SDS_P1;SDS_P2;PMS_P1;PMS_P2;Temp;Humidity;BMP_temperature;BMP_pressure;BME280_temperature;BME280_humidity;BME280_pressure;Samples;Min_cycle;Max_cycle;Signal;HPM_P1;HPM_P2
2022/11/13 00:00:53;;;;;;;;;;;;;;;19.30;46.67;103234.44;5007253;28;19925;-31
2022/11/13 00:03:18;;;;;;;;;;;;;;;19.32;46.50;103234.19;5008918;28;19921;-31
2022/11/13 00:05:43;;;;;;;;;;;;;;;19.32;46.58;103232.28;5005976;28;20407;-32
2022/11/13 00:08:09;;;;;;;;;;;;;;;19.33;46.68;103233.09;5005932;28;20077;-31
2022/11/13 00:10:34;;;;;;;;;;;;;;;19.30;46.50;103230.88;5007276;28;19925;-32
2022/11/13 00:13:00;;;;;;;;;;;;;;;19.29;46.79;103229.22;5004663;28;19991;-32
2022/11/13 00:15:25;;;;;;;;;;;;;;;19.32;46.69;103242.34;5005118;28;19924;-31
2022/11/13 00:17:50;;;;;;;;;;;;;;;19.32;46.69;103229.56;5002939;28;19972;-32
2022/11/13 00:20:16;;;;;;;;;;;;;;;19.33;46.71;103233.09;5003502;28;19921;-32
2022/11/13 00:22:42;;;;;;;;;;;;;;;19.32;46.61;103232.28;5004734;28;19917;-32
2022/11/13 00:25:07;;;;;;;;;;;;;;;19.33;46.49;103231.22;5000273;28;20000;-32
2022/11/13 00:27:33;;;;;;;;;;;;;;;19.35;46.52;103219.25;5002213;28;19928;-32
2022/11/13 00:29:58;;;;;;;;;;;;;;;19.34;46.45;103210.28;5001413;28;19967;-32
2022/11/13 00:32:25;;;;;;;;;;;;;;;19.32;46.43;103218.69;5005132;28;19968;-32
2022/11/13 00:34:50;;;;;;;;;;;;;;;19.32;46.50;103212.44;5003678;28;19928;-32
2022/11/13 00:37:15;;;;;;;;;;;;;;;19.30;46.35;103206.41;5003107;28;19937;-32
2022/11/13 00:39:41;;;;;;;;;;;;;;;19.27;46.63;103209.63;5001288;28;19925;-32
2022/11/13 00:42:06;;;;;;;;;;;;;;;19.27;46.63;103206.91;5005277;28;20294;-32
2022/11/13 00:44:31;;;;;;;;;;;;;;;19.26;46.57;103203.38;5001736;28;19917;-31
2022/11/13 00:46:56;;;;;;;;;;;;;;;19.25;46.64;103203.63;5005207;28;20263;-31
2022/11/13 00:49:22;;;;;;;;;;;;;;;19.25;46.80;103204.44;5002330;28;19917;-32
2022/11/13 00:51:47;;;;;;;;;;;;;;;19.25;46.59;103199.00;5000147;28;20423;-31
2022/11/13 00:54:12;;;;;;;;;;;;;;;19.25;46.73;103200.91;5003685;28;20411;-32
2022/11/13 00:56:38;;;;;;;;;;;;;;;19.25;46.64;103200.91;5004769;28;19971;-32
2022/11/13 00:59:03;;;;;;;;;;;;;;;19.26;46.55;103202.56;5003457;28;19926;-31
2022/11/13 01:01:28;;;;;;;;;;;;;;;19.26;46.49;103197.94;4999876;28;19925;-32
2022/11/13 01:03:54;;;;;;;;;;;;;;;19.25;46.41;103198.19;5003348;28;19918;-32
2022/11/13 01:06:24;;;;;;;;;;;;;;;19.25;46.52;103192.75;5006124;28;19921;-32
2022/11/13 01:08:49;;;;;;;;;;;;;;;19.26;46.47;103194.41;5002056;28;19922;-32
2022/11/13 01:11:16;;;;;;;;;;;;;;;19.26;46.56;103194.41;5003075;28;20003;-32
2022/11/13 01:13:43;;;;;;;;;;;;;;;19.24;46.67;103193.81;5003745;28;19948;-32
2022/11/13 01:16:09;;;;;;;;;;;;;;;19.24;46.67;103189.22;5004735;28;20306;-31
2022/11/13 01:18:35;;;;;;;;;;;;;;;19.25;46.54;103188.13;5004205;28;19928;-32
2022/11/13 01:21:01;;;;;;;;;;;;;;;19.26;46.57;103194.41;5005156;28;19926;-31
2022/11/13 01:23:26;;;;;;;;;;;;;;;19.25;46.41;103188.13;5004477;28;19917;-32
2022/11/13 01:25:52;;;;;;;;;;;;;;;19.24;46.41;103191.09;5001285;28;19917;-32
2022/11/13 01:28:17;;;;;;;;;;;;;;;19.25;46.37;103184.59;5006614;28;20330;-32
2022/11/13 01:30:42;;;;;;;;;;;;;;;19.24;46.42;103189.22;4998726;28;20391;-32
2022/11/13 01:33:08;;;;;;;;;;;;;;;19.23;46.41;103182.13;5000705;28;19924;-32
2022/11/13 01:35:33;;;;;;;;;;;;;;;19.23;46.52;103184.84;5004880;28;19921;-32
2022/11/13 01:37:58;;;;;;;;;;;;;;;19.22;46.30;103180.50;5005999;28;19929;-32
2022/11/13 01:40:23;;;;;;;;;;;;;;;19.21;46.33;103175.28;5005364;28;19918;-32
2022/11/13 01:42:49;;;;;;;;;;;;;;;19.18;46.44;103173.88;5000444;28;19929;-32
2022/11/13 01:45:33;;;;;;;;;;;;;;;19.14;46.40;103169.19;5002128;28;20359;-32
2022/11/13 01:47:58;;;;;;;;;;;;;;;19.10;46.53;103171.59;5003529;28;19921;-32
2022/11/13 01:50:23;;;;;;;;;;;;;;;19.10;46.33;103179.72;5006977;28;19971;-32
2022/11/13 01:52:49;;;;;;;;;;;;;;;19.08;46.38;103170.19;5002394;28;19971;-32
2022/11/13 01:55:17;;;;;;;;;;;;;;;19.10;46.60;103168.03;5005626;28;19917;-32
2022/11/13 01:57:42;;;;;;;;;;;;;;;19.13;46.52;103167.53;5003346;28;19972;-32
2022/11/13 02:00:09;;;;;;;;;;;;;;;19.14;46.51;103163.75;5000866;28;19921;-32
2022/11/13 02:02:34;;;;;;;;;;;;;;;19.16;46.56;103158.88;5001209;28;20075;-31
2022/11/13 02:05:00;;;;;;;;;;;;;;;19.15;46.50;103152.63;5001010;28;19933;-32
2022/11/13 02:07:25;;;;;;;;;;;;;;;19.15;46.32;103154.53;5003817;28;20292;-32
2022/11/13 02:09:53;;;;;;;;;;;;;;;19.13;46.43;103151.25;5006095;28;19928;-32
2022/11/13 02:12:24;;;;;;;;;;;;;;;19.14;46.63;103147.44;5003473;28;19921;-31
2022/11/13 02:14:52;;;;;;;;;;;;;;;19.13;46.43;103148.53;4996562;28;19918;-32
2022/11/13 02:17:29;;;;;;;;;;;;;;;19.13;46.49;103151.25;5003042;28;19999;-32
2022/11/13 02:19:57;;;;;;;;;;;;;;;19.11;46.53;103147.94;5001179;28;20015;-32
2022/11/13 02:22:22;;;;;;;;;;;;;;;19.08;46.32;103153.88;4998708;28;19921;-32
2022/11/13 02:24:48;;;;;;;;;;;;;;;19.05;46.34;103155.19;5004398;28;19913;-32
2022/11/13 02:27:23;;;;;;;;;;;;;;;19.04;46.62;103144.59;5005014;28;20287;-32
2022/11/13 02:29:48;;;;;;;;;;;;;;;19.04;46.54;103147.31;5003090;28;20195;-32
2022/11/13 02:32:14;;;;;;;;;;;;;;;19.04;46.64;103144.59;5000289;28;19969;-31
2022/11/13 02:34:39;;;;;;;;;;;;;;;19.04;46.46;103141.88;5006140;28;20421;-32
2022/11/13 02:37:04;;;;;;;;;;;;;;;19.06;46.58;103137.00;5003298;28;20390;-31
2022/11/13 02:39:30;;;;;;;;;;;;;;;19.05;46.35;103133.47;5004362;28;19921;-32
2022/11/13 02:41:55;;;;;;;;;;;;;;;19.04;46.38;103131.81;4997939;28;19976;-32
2022/11/13 02:44:20;;;;;;;;;;;;;;;19.04;46.38;103137.25;5002925;28;20054;-32
2022/11/13 02:46:45;;;;;;;;;;;;;;;19.03;46.54;103141.03;5000721;28;19972;-32
2022/11/13 02:49:11;;;;;;;;;;;;;;;19.03;46.48;103132.91;5001062;28;19917;-32
2022/11/13 02:51:36;;;;;;;;;;;;;;;19.02;46.79;103123.88;5002340;28;20064;-32
2022/11/13 02:54:01;;;;;;;;;;;;;;;19.07;46.57;103130.50;5000241;28;20442;-32
2022/11/13 02:56:27;;;;;;;;;;;;;;;19.02;46.40;103129.31;5002749;28;19925;-32
2022/11/13 02:58:52;;;;;;;;;;;;;;;18.98;46.41;103130.91;5002360;28;19919;-33
2022/11/13 03:01:17;;;;;;;;;;;;;;;18.97;46.67;103125.72;5001834;28;19917;-32
2022/11/13 03:03:43;;;;;;;;;;;;;;;18.98;46.68;103127.34;5003422;28;19923;-32
2022/11/13 03:06:08;;;;;;;;;;;;;;;18.97;46.58;103123.00;5002864;28;19963;-32
2022/11/13 03:08:33;;;;;;;;;;;;;;;18.98;46.68;103130.91;5002897;28;19929;-32
2022/11/13 03:10:59;;;;;;;;;;;;;;;19.01;46.64;103124.13;5001459;28;19925;-32
2022/11/13 03:13:24;;;;;;;;;;;;;;;19.01;46.67;103122.25;4997959;28;19918;-32
2022/11/13 03:15:49;;;;;;;;;;;;;;;19.04;46.51;103125.56;5004128;28;19918;-32
2022/11/13 03:18:14;;;;;;;;;;;;;;;19.05;46.47;103121.78;4999929;28;19918;-32
2022/11/13 03:20:41;;;;;;;;;;;;;;;19.05;46.58;103114.44;5001827;28;19972;-33
2022/11/13 03:23:06;;;;;;;;;;;;;;;19.04;46.48;103115.53;5002921;28;20473;-32
2022/11/13 03:25:32;;;;;;;;;;;;;;;19.04;46.47;103114.69;5003669;28;20391;-32
2022/11/13 03:27:57;;;;;;;;;;;;;;;19.02;46.67;103107.59;5003191;28;19956;-32
2022/11/13 03:30:23;;;;;;;;;;;;;;;19.02;46.67;103106.75;5003122;28;19957;-31
2022/11/13 03:32:51;;;;;;;;;;;;;;;19.01;46.73;103105.13;5000645;28;19987;-33
2022/11/13 03:35:17;;;;;;;;;;;;;;;18.98;46.58;103106.44;5000854;28;20489;-32
2022/11/13 03:37:42;;;;;;;;;;;;;;;18.94;46.77;103099.88;5003418;28;19956;-32
2022/11/13 03:40:08;;;;;;;;;;;;;;;18.96;46.74;103096.91;5001885;28;19921;-32
2022/11/13 03:42:33;;;;;;;;;;;;;;;18.94;46.69;103104.47;5001729;28;19922;-32
2022/11/13 03:44:59;;;;;;;;;;;;;;;18.92;46.78;103090.31;5002002;28;20299;-32
2022/11/13 03:47:24;;;;;;;;;;;;;;;18.92;46.59;103091.16;5000198;28;20061;-32
2022/11/13 03:49:49;;;;;;;;;;;;;;;18.91;46.70;103102.25;4997461;28;19918;-32
2022/11/13 03:52:15;;;;;;;;;;;;;;;18.91;46.72;103100.38;5001115;28;19929;-32
2022/11/13 03:54:40;;;;;;;;;;;;;;;18.94;46.56;103104.47;5004421;28;20349;-32
2022/11/13 03:57:05;;;;;;;;;;;;;;;18.89;46.55;103110.66;5004733;28;20363;-32
2022/11/13 03:59:30;;;;;;;;;;;;;;;18.89;46.96;103116.09;5005093;28;19921;-32
2022/11/13 04:01:56;;;;;;;;;;;;;;;18.89;46.61;103116.09;5006085;28;20344;-32
2022/11/13 04:04:21;;;;;;;;;;;;;;;18.87;46.60;103110.09;5004907;28;20032;-32
2022/11/13 04:06:46;;;;;;;;;;;;;;;18.88;46.74;103114.44;5008124;28;19924;-32
2022/11/13 04:09:12;;;;;;;;;;;;;;;18.88;46.80;103114.44;5006455;28;19918;-32
2022/11/13 04:11:37;;;;;;;;;;;;;;;18.90;46.58;103120.44;5006390;28;19917;-33
2022/11/13 04:14:02;;;;;;;;;;;;;;;18.91;46.90;103122.09;5006373;28;19927;-32
2022/11/13 04:16:28;;;;;;;;;;;;;;;18.89;46.62;103118.81;5002868;28;19931;-32
2022/11/13 04:18:53;;;;;;;;;;;;;;;18.89;46.51;103118.81;5004702;28;19921;-32
2022/11/13 04:21:18;;;;;;;;;;;;;;;18.89;46.72;103124.25;5006921;28;20306;-32
2022/11/13 04:23:44;;;;;;;;;;;;;;;18.91;46.80;103115.84;5008442;28;20372;-32
2022/11/13 04:26:09;;;;;;;;;;;;;;;18.90;46.65;103116.91;5007180;28;19925;-32
2022/11/13 04:28:34;;;;;;;;;;;;;;;18.88;46.83;103125.31;5004874;28;19926;-32
2022/11/13 04:31:00;;;;;;;;;;;;;;;18.87;46.66;103120.13;5007852;28;19928;-31
2022/11/13 04:33:25;;;;;;;;;;;;;;;18.88;46.74;103125.31;5003798;28;19929;-32
2022/11/13 04:35:50;;;;;;;;;;;;;;;18.90;46.71;103115.03;5008190;28;19917;-32
2022/11/13 04:38:15;;;;;;;;;;;;;;;18.90;46.86;103115.03;5002840;28;19925;-32
2022/11/13 04:40:41;;;;;;;;;;;;;;;18.91;46.86;103116.66;5007530;28;20335;-32
2022/11/13 04:43:06;;;;;;;;;;;;;;;18.91;46.86;103113.94;5009213;28;20271;-32
2022/11/13 04:45:32;;;;;;;;;;;;;;;18.92;46.96;103117.50;5004072;28;19929;-32
2022/11/13 04:47:57;;;;;;;;;;;;;;;18.93;47.18;103109.09;5003551;28;19921;-33
2022/11/13 04:50:22;;;;;;;;;;;;;;;18.93;46.80;103111.81;5001960;28;19968;-32
2022/11/13 04:52:48;;;;;;;;;;;;;;;18.93;46.92;103109.09;5005606;28;19917;-33
2022/11/13 04:55:13;;;;;;;;;;;;;;;18.93;46.97;103097.41;5011576;28;19922;-32
2022/11/13 04:57:39;;;;;;;;;;;;;;;18.94;46.80;103105.31;5005746;28;19921;-31
2022/11/13 05:00:05;;;;;;;;;;;;;;;18.94;47.02;103094.44;5001550;28;19944;-32
2022/11/13 05:02:31;;;;;;;;;;;;;;;18.94;46.87;103093.59;5004222;28;19918;-32
2022/11/13 05:04:56;;;;;;;;;;;;;;;18.92;47.03;103093.84;5003561;28;19928;-32
2022/11/13 05:07:21;;;;;;;;;;;;;;;18.91;46.93;103089.50;5001456;28;19984;-32
2022/11/13 05:09:47;;;;;;;;;;;;;;;18.91;47.03;103083.25;5003381;28;19940;-32
2022/11/13 05:12:12;;;;;;;;;;;;;;;18.91;46.98;103081.34;4999808;28;21803;-33
2022/11/13 05:14:38;;;;;;;;;;;;;;;18.93;47.08;103092.78;5002896;28;20359;-32
2022/11/13 05:17:04;;;;;;;;;;;;;;;18.95;47.06;103084.38;5000596;28;20282;-32
2022/11/13 05:19:33;;;;;;;;;;;;;;;18.94;46.87;103094.44;4999673;28;20343;-32
2022/11/13 05:21:58;;;;;;;;;;;;;;;18.92;46.95;103091.16;4996444;28;19917;-32
2022/11/13 05:24:23;;;;;;;;;;;;;;;18.89;47.09;103080.78;4998275;28;20551;-32
2022/11/13 05:26:49;;;;;;;;;;;;;;;18.89;47.18;103086.22;5002004;28;19964;-32
2022/11/13 05:29:14;;;;;;;;;;;;;;;18.89;47.21;103079.97;4998048;28;19971;-32
2022/11/13 05:31:40;;;;;;;;;;;;;;;18.88;47.05;103081.84;4997528;28;19948;-32
2022/11/13 05:34:05;;;;;;;;;;;;;;;18.87;47.09;103082.91;4995698;28;19925;-33
2022/11/13 05:36:31;;;;;;;;;;;;;;;18.86;47.23;103084.00;5003907;28;19922;-31
2022/11/13 05:38:56;;;;;;;;;;;;;;;18.86;47.19;103075.84;5006341;28;19917;-32
2022/11/13 05:41:22;;;;;;;;;;;;;;;18.85;47.15;103076.06;5002514;28;19928;-32
2022/11/13 05:43:47;;;;;;;;;;;;;;;18.81;47.24;103083.88;5001827;28;19925;-32
2022/11/13 05:46:14;;;;;;;;;;;;;;;18.81;47.40;103088.50;5004152;28;19917;-32
2022/11/13 05:48:40;;;;;;;;;;;;;;;18.80;47.50;103087.69;5002959;28;19928;-32
2022/11/13 05:51:06;;;;;;;;;;;;;;;18.81;47.41;103086.59;5000657;28;20406;-32
2022/11/13 05:53:33;;;;;;;;;;;;;;;18.82;47.60;103090.16;5005477;28;19917;-32
2022/11/13 05:56:03;;;;;;;;;;;;;;;18.80;47.54;103082.25;5001057;28;20652;-32
2022/11/13 05:58:29;;;;;;;;;;;;;;;18.81;47.34;103077.63;5000730;28;19918;-32
2022/11/13 06:01:03;;;;;;;;;;;;;;;18.82;47.34;103079.28;5002489;28;19922;-32
2022/11/13 06:03:29;;;;;;;;;;;;;;;18.82;47.32;103073.84;4996624;28;19925;-32
2022/11/13 06:05:54;;;;;;;;;;;;;;;18.80;47.19;103076.81;5002594;28;19918;-33
2022/11/13 06:08:19;;;;;;;;;;;;;;;18.77;47.49;103069.16;5003374;28;20402;-32
2022/11/13 06:10:45;;;;;;;;;;;;;;;18.75;47.63;103079.47;5000987;28;20008;-32
2022/11/13 06:13:10;;;;;;;;;;;;;;;18.72;47.41;103079.94;5004042;28;19917;-33
2022/11/13 06:15:35;;;;;;;;;;;;;;;18.73;47.63;103072.63;5003297;28;19921;-32
2022/11/13 06:18:00;;;;;;;;;;;;;;;18.70;47.55;103077.47;5000776;28;19949;-33
2022/11/13 06:20:26;;;;;;;;;;;;;;;18.69;47.40;103069.59;5003898;28;20338;-32
2022/11/13 06:22:51;;;;;;;;;;;;;;;18.66;47.57;103070.06;5010466;28;19918;-33
2022/11/13 06:25:16;;;;;;;;;;;;;;;18.59;47.87;103064.75;5003293;28;19925;-32
2022/11/13 06:27:42;;;;;;;;;;;;;;;18.58;47.84;103063.13;4998369;28;19984;-32
2022/11/13 06:30:08;;;;;;;;;;;;;;;18.60;47.80;103068.31;5001435;28;19921;-32
2022/11/13 06:32:33;;;;;;;;;;;;;;;18.62;47.86;103068.88;5000773;28;20056;-32
2022/11/13 06:34:58;;;;;;;;;;;;;;;18.64;47.68;103066.75;5003054;28;19944;-32
2022/11/13 06:37:23;;;;;;;;;;;;;;;18.67;47.69;103077.13;5002453;28;20335;-33
2022/11/13 06:39:49;;;;;;;;;;;;;;;18.68;47.77;103073.38;5000633;28;20440;-32
2022/11/13 06:42:14;;;;;;;;;;;;;;;18.68;47.82;103067.94;5001355;28;20069;-33
2022/11/13 06:44:39;;;;;;;;;;;;;;;18.70;47.72;103054.94;5003953;28;19950;-33
2022/11/13 06:47:05;;;;;;;;;;;;;;;18.68;47.71;103066.06;5004764;28;19932;-32
2022/11/13 06:49:30;;;;;;;;;;;;;;;18.67;47.85;103066.28;5000588;28;20355;-33
2022/11/13 06:51:55;;;;;;;;;;;;;;;18.69;48.17;103058.72;5001762;28;20008;-33
2022/11/13 06:54:20;;;;;;;;;;;;;;;18.62;48.20;103052.59;5002863;28;19975;-32
2022/11/13 06:56:46;;;;;;;;;;;;;;;18.62;48.08;103047.16;5001988;28;20465;-32
2022/11/13 06:59:11;;;;;;;;;;;;;;;18.58;47.92;103054.16;5000824;28;19940;-32
2022/11/13 07:01:36;;;;;;;;;;;;;;;18.55;48.08;103046.50;4997499;28;19925;-32
2022/11/13 07:04:03;;;;;;;;;;;;;;;18.55;48.32;103046.50;4999046;28;19918;-32
2022/11/13 07:06:28;;;;;;;;;;;;;;;18.56;48.45;103046.25;5003348;28;20532;-32
2022/11/13 07:08:54;;;;;;;;;;;;;;;18.60;48.36;103043.88;5001264;28;19948;-32
2022/11/13 07:11:20;;;;;;;;;;;;;;;18.60;48.40;103043.88;5017467;22;20027;-32
2022/11/13 07:13:46;;;;;;;;;;;;;;;18.59;48.28;103047.66;5000730;28;19926;-32
2022/11/13 07:16:11;;;;;;;;;;;;;;;18.61;48.35;103040.09;5005032;28;19933;-31
2022/11/13 07:18:37;;;;;;;;;;;;;;;18.61;48.28;103040.09;5001986;28;20025;-32
2022/11/13 07:21:04;;;;;;;;;;;;;;;18.63;48.38;103037.97;5002896;28;19944;-32
2022/11/13 07:23:29;;;;;;;;;;;;;;;18.62;48.41;103041.72;4998492;28;19926;-31
2022/11/13 07:25:54;;;;;;;;;;;;;;;18.63;48.51;103040.69;5002232;28;19917;-31
2022/11/13 07:28:20;;;;;;;;;;;;;;;18.64;48.38;103045.03;5004107;28;19921;-32
2022/11/13 07:30:45;;;;;;;;;;;;;;;18.64;48.39;103040.44;5006437;28;20078;-32
2022/11/13 07:33:11;;;;;;;;;;;;;;;18.63;48.60;103046.13;5001914;28;19925;-31
2022/11/13 07:35:36;;;;;;;;;;;;;;;18.63;48.57;103040.69;5000394;28;19917;-32
2022/11/13 07:38:01;;;;;;;;;;;;;;;18.59;48.68;103042.22;5004857;28;19928;-32
2022/11/13 07:40:27;;;;;;;;;;;;;;;18.57;48.79;103037.03;5006303;28;19917;-32
2022/11/13 07:42:59;;;;;;;;;;;;;;;18.62;48.84;103041.72;5006495;28;20305;-32
2022/11/13 07:45:25;;;;;;;;;;;;;;;18.60;48.80;103039.25;5003618;28;20061;-32
2022/11/13 07:47:50;;;;;;;;;;;;;;;18.58;48.98;103035.16;5006065;28;19925;-32
2022/11/13 07:50:16;;;;;;;;;;;;;;;18.55;48.89;103044.63;5009370;28;20216;-31
2022/11/13 07:52:41;;;;;;;;;;;;;;;18.57;49.12;103039.75;5006941;28;20027;-31
2022/11/13 07:55:06;;;;;;;;;;;;;;;18.62;49.20;103044.44;5003811;28;20011;-31
2022/11/13 07:57:32;;;;;;;;;;;;;;;18.62;49.16;103047.97;5000289;28;19921;-32
2022/11/13 07:59:57;;;;;;;;;;;;;;;18.65;49.10;103047.50;5002679;28;20272;-32
2022/11/13 08:02:22;;;;;;;;;;;;;;;18.66;49.40;103049.16;5003723;28;20462;-32
2022/11/13 08:04:48;;;;;;;;;;;;;;;18.69;49.12;103050.56;5003232;28;19926;-31
2022/11/13 08:07:13;;;;;;;;;;;;;;;18.72;48.99;103050.09;5005448;28;19948;-31
2022/11/13 08:09:39;;;;;;;;;;;;;;;18.74;49.01;103056.09;5004954;28;19913;-31
2022/11/13 08:12:04;;;;;;;;;;;;;;;18.76;48.86;103050.41;5004852;28;19932;-32
2022/11/13 08:14:29;;;;;;;;;;;;;;;18.76;48.94;103053.94;5001258;28;19969;-32
2022/11/13 08:16:55;;;;;;;;;;;;;;;18.78;49.15;103046.38;5002184;28;19971;-31
2022/11/13 08:19:20;;;;;;;;;;;;;;;18.81;49.27;103045.03;5001463;28;20015;-32
2022/11/13 08:21:45;;;;;;;;;;;;;;;18.85;49.08;103051.63;5002586;28;19991;-32
2022/11/13 08:24:11;;;;;;;;;;;;;;;18.88;49.03;103053.88;5004359;28;20295;-31
2022/11/13 08:26:36;;;;;;;;;;;;;;;18.90;48.78;103054.44;5001478;28;19925;-32
2022/11/13 08:29:02;;;;;;;;;;;;;;;18.91;48.87;103056.09;5002449;28;20398;-31
2022/11/13 08:31:27;;;;;;;;;;;;;;;18.95;48.96;103052.63;5001717;28;20383;-32
2022/11/13 08:33:53;;;;;;;;;;;;;;;18.94;48.80;103047.44;5004550;28;19948;-32
2022/11/13 08:36:18;;;;;;;;;;;;;;;18.94;48.79;103050.97;5003372;28;19952;-32
2022/11/13 08:38:43;;;;;;;;;;;;;;;18.93;48.79;103049.31;5004015;28;20156;-32
2022/11/13 08:41:09;;;;;;;;;;;;;;;18.96;48.59;103048.81;5003461;28;19921;-32
2022/11/13 08:43:34;;;;;;;;;;;;;;;18.97;48.25;103044.22;5002072;28;20294;-32
2022/11/13 08:45:59;;;;;;;;;;;;;;;18.87;48.29;103042.19;5002875;28;19968;-32
2022/11/13 08:48:25;;;;;;;;;;;;;;;18.80;48.60;103043.41;5001452;28;19925;-32
2022/11/13 08:50:51;;;;;;;;;;;;;;;18.71;48.58;103037.56;5000372;28;19925;-32
2022/11/13 08:53:17;;;;;;;;;;;;;;;18.73;48.80;103048.19;5003101;28;19917;-32
2022/11/13 08:55:42;;;;;;;;;;;;;;;18.74;48.56;103045.22;5003184;28;20389;-32
2022/11/13 08:58:08;;;;;;;;;;;;;;;18.76;48.50;103042.25;5003227;28;19924;-31
2022/11/13 09:00:33;;;;;;;;;;;;;;;18.79;48.45;103044.47;4998334;28;20003;-31
2022/11/13 09:02:59;;;;;;;;;;;;;;;18.76;48.21;103047.69;5003025;28;19917;-32
2022/11/13 09:05:25;;;;;;;;;;;;;;;18.74;48.27;103045.22;5004714;28;20410;-31
2022/11/13 09:07:50;;;;;;;;;;;;;;;18.73;48.04;103050.91;4999116;28;19968;-33
2022/11/13 09:10:16;;;;;;;;;;;;;;;18.68;48.18;103049.75;4998642;28;19918;-34
2022/11/13 09:12:42;;;;;;;;;;;;;;;18.66;48.25;103045.63;4997991;28;19936;-33
2022/11/13 09:15:08;;;;;;;;;;;;;;;18.68;48.18;103044.31;5000751;28;19917;-34
2022/11/13 09:17:33;;;;;;;;;;;;;;;18.71;48.25;103053.88;5005909;28;20368;-33
2022/11/13 09:19:58;;;;;;;;;;;;;;;18.74;48.14;103044.41;5000451;28;19918;-34
2022/11/13 09:22:24;;;;;;;;;;;;;;;18.73;48.08;103048.19;4999677;28;19913;-34
2022/11/13 09:24:49;;;;;;;;;;;;;;;18.71;48.09;103040.28;5003084;28;19918;-33
2022/11/13 09:27:14;;;;;;;;;;;;;;;18.72;48.07;103041.94;5004452;28;19917;-34
2022/11/13 09:29:40;;;;;;;;;;;;;;;18.71;48.19;103043.00;4999174;28;19928;-33
2022/11/13 09:32:05;;;;;;;;;;;;;;;18.69;47.98;103042.44;4995504;28;19924;-34
2022/11/13 09:34:32;;;;;;;;;;;;;;;18.69;48.17;103040.53;4999561;28;19922;-34
2022/11/13 09:36:58;;;;;;;;;;;;;;;18.70;48.21;103044.06;5000765;28;19949;-34
2022/11/13 09:39:23;;;;;;;;;;;;;;;18.71;47.97;103045.72;5001722;28;20351;-33
2022/11/13 09:41:48;;;;;;;;;;;;;;;18.68;47.94;103041.63;5004538;28;20545;-34
2022/11/13 09:44:19;;;;;;;;;;;;;;;18.69;47.99;103043.25;5001093;28;19947;-34
2022/11/13 09:46:47;;;;;;;;;;;;;;;18.65;47.95;103041.25;5002508;28;20582;-34
2022/11/13 09:49:14;;;;;;;;;;;;;;;18.63;48.18;103035.25;5004072;28;19918;-34
2022/11/13 09:51:40;;;;;;;;;;;;;;;18.56;48.08;103034.56;5000208;28;19936;-33
2022/11/13 09:54:14;;;;;;;;;;;;;;;18.50;48.22;103041.00;5001060;28;19925;-34
2022/11/13 09:56:42;;;;;;;;;;;;;;;18.47;48.42;103038.75;5001413;28;19996;-34
2022/11/13 09:59:11;;;;;;;;;;;;;;;18.47;48.12;103038.75;5002803;28;19921;-34
2022/11/13 10:01:46;;;;;;;;;;;;;;;18.41;48.35;103035.97;5001656;28;19987;-34
2022/11/13 10:04:13;;;;;;;;;;;;;;;18.43;48.33;103036.53;5002254;28;19928;-34
2022/11/13 10:06:44;;;;;;;;;;;;;;;18.39;48.81;103038.09;5004763;28;19924;-34
2022/11/13 10:09:30;;;;;;;;;;;;;;;18.42;48.47;103037.59;5005490;28;20149;-33
2022/11/13 10:11:58;;;;;;;;;;;;;;;18.47;48.16;103033.31;5000150;28;19925;-33
2022/11/13 10:14:29;;;;;;;;;;;;;;;18.46;48.38;103031.69;5002039;28;20448;-33
2022/11/13 10:16:57;;;;;;;;;;;;;;;18.50;48.53;103022.00;5002368;28;20360;-33
2022/11/13 10:19:41;;;;;;;;;;;;;;;18.54;48.64;103020.44;5002639;28;19925;-34
2022/11/13 10:22:19;;;;;;;;;;;;;;;18.54;48.52;103017.72;5001875;28;19928;-33
2022/11/13 10:24:49;;;;;;;;;;;;;;;18.54;48.54;103009.56;5000657;28;19967;-33
2022/11/13 10:27:15;;;;;;;;;;;;;;;18.56;48.42;103010.97;5002479;28;19925;-33
2022/11/13 10:29:41;;;;;;;;;;;;;;;18.60;48.36;103005.84;4999753;28;19921;-33
2022/11/13 10:32:22;;;;;;;;;;;;;;;18.57;48.21;103001.75;5002164;28;20151;-33
2022/11/13 10:34:53;;;;;;;;;;;;;;;18.60;48.45;103003.97;5003607;28;19929;-34
2022/11/13 10:37:42;;;;;;;;;;;;;;;18.62;48.16;102998.28;5000860;28;19922;-34
2022/11/13 10:40:07;;;;;;;;;;;;;;;18.61;48.31;102993.94;5002295;28;19922;-33
2022/11/13 10:42:37;;;;;;;;;;;;;;;18.64;48.30;102996.16;4995069;28;19956;-33
2022/11/13 10:45:03;;;;;;;;;;;;;;;18.65;48.12;102997.81;5001280;28;19925;-34
2022/11/13 10:47:31;;;;;;;;;;;;;;;18.65;48.17;102997.81;4998820;28;19961;-34
2022/11/13 10:50:07;;;;;;;;;;;;;;;18.64;48.19;102996.16;5001246;28;19918;-33
2022/11/13 10:52:33;;;;;;;;;;;;;;;18.63;48.29;102992.63;5002290;28;19989;-33
2022/11/13 10:55:19;;;;;;;;;;;;;;;18.64;48.33;102986.13;5001463;28;20251;-33
2022/11/13 10:57:54;;;;;;;;;;;;;;;18.66;48.41;102983.16;4997104;28;19986;-34
2022/11/13 11:00:20;;;;;;;;;;;;;;;18.69;48.20;102991.66;5001062;28;20501;-34
2022/11/13 11:02:49;;;;;;;;;;;;;;;18.69;48.11;102985.41;5000566;28;19960;-33
2022/11/13 11:05:19;;;;;;;;;;;;;;;18.67;48.26;102974.81;4997227;28;19932;-34
2022/11/13 11:07:45;;;;;;;;;;;;;;;18.67;48.17;102974.81;4996243;28;19926;-33
2022/11/13 11:10:22;;;;;;;;;;;;;;;18.62;48.10;102974.66;4997936;28;19975;-34
2022/11/13 11:12:51;;;;;;;;;;;;;;;18.58;48.31;102973.53;4998849;28;20424;-34
2022/11/13 11:15:16;;;;;;;;;;;;;;;18.58;48.29;102970.00;5000763;28;19921;-34
2022/11/13 11:18:08;;;;;;;;;;;;;;;18.58;48.10;102970.00;5003597;28;19935;-34
2022/11/13 11:20:39;;;;;;;;;;;;;;;18.59;48.21;102958.06;4970296;28;20019;-34
2022/11/13 11:23:22;;;;;;;;;;;;;;;18.55;48.25;102962.34;5000262;28;19961;-34
2022/11/13 11:25:56;;;;;;;;;;;;;;;18.56;48.28;102958.56;5001304;28;19918;-34
2022/11/13 11:28:24;;;;;;;;;;;;;;;18.56;48.20;102955.84;4996566;28;19937;-34
2022/11/13 11:30:52;;;;;;;;;;;;;;;18.59;48.31;102960.78;4997842;28;20417;-34
2022/11/13 11:33:32;;;;;;;;;;;;;;;18.64;48.25;102952.72;4999698;28;19997;-34
2022/11/13 11:36:24;;;;;;;;;;;;;;;18.68;48.06;102943.03;5002988;28;20319;-34
2022/11/13 11:38:50;;;;;;;;;;;;;;;18.63;48.15;102945.66;4994464;28;19922;-34
2022/11/13 11:41:18;;;;;;;;;;;;;;;18.58;48.08;102948.28;4995479;28;20172;-33
2022/11/13 11:43:46;;;;;;;;;;;;;;;18.55;48.27;102948.78;4999582;28;20287;-34
2022/11/13 11:46:12;;;;;;;;;;;;;;;18.50;48.36;102946.81;5000780;28;20517;-34
2022/11/13 11:48:38;;;;;;;;;;;;;;;18.49;48.20;102945.16;5000488;28;19995;-33
2022/11/13 11:51:09;;;;;;;;;;;;;;;18.49;48.12;102939.75;5000598;28;20403;-34
2022/11/13 11:53:50;;;;;;;;;;;;;;;18.46;48.14;102940.22;5001866;28;19921;-33
2022/11/13 11:56:28;;;;;;;;;;;;;;;18.43;48.14;102941.53;5001678;28;19917;-34
2022/11/13 11:58:59;;;;;;;;;;;;;;;18.37;48.22;102926.25;4997754;28;19925;-34
2022/11/13 12:01:24;;;;;;;;;;;;;;;18.34;48.25;102937.59;4998520;28;19921;-33
2022/11/13 12:04:16;;;;;;;;;;;;;;;18.36;48.40;102934.63;4993776;28;21071;-33
2022/11/13 12:06:48;;;;;;;;;;;;;;;18.36;48.31;102926.50;4965841;28;20380;-34
2022/11/13 12:09:17;;;;;;;;;;;;;;;18.35;48.45;102928.38;4996773;28;19935;-33
2022/11/13 12:11:54;;;;;;;;;;;;;;;18.36;48.50;102916.47;4994347;28;20033;-33
2022/11/13 12:14:38;;;;;;;;;;;;;;;18.40;48.59;102917.59;5000563;28;20019;-33
2022/11/13 12:17:26;;;;;;;;;;;;;;;18.39;48.44;102924.09;5002073;28;20382;-33
2022/11/13 12:19:55;;;;;;;;;;;;;;;18.40;48.37;102904.03;4998694;28;20387;-33
2022/11/13 12:22:29;;;;;;;;;;;;;;;18.41;48.38;102905.66;5001775;28;19925;-33
2022/11/13 12:25:09;;;;;;;;;;;;;;;18.42;48.27;102901.88;5004200;28;20016;-34
2022/11/13 12:27:39;;;;;;;;;;;;;;;18.40;48.34;102903.22;5002379;28;19929;-34
2022/11/13 12:30:08;;;;;;;;;;;;;;;18.39;48.45;102896.13;5000796;28;19928;-34
2022/11/13 12:32:45;;;;;;;;;;;;;;;18.35;48.60;102901.25;5001949;28;20411;-34
2022/11/13 12:35:15;;;;;;;;;;;;;;;18.29;48.37;102891.38;5006150;28;20091;-34